sensor_id;sensor_type;location;lat;lon;timestamp;pressure;altitude;pressure_sealevel;temperature
59339;BMP280;45117;50.960;5.500;2023-04-01T02:13:18;98470.41;;;9.26
59339;BMP280;45117;50.960;5.500;2023-04-01T02:15:50;98481.53;;;9.24
59339;BMP280;45117;50.960;5.500;2023-04-01T02:18:18;98488.38;;;9.25
59339;BMP280;45117;50.960;5.500;2023-04-01T02:20:45;98489.56;;;9.24
59339;BMP280;45117;50.960;5.500;2023-04-01T02:23:12;98491.03;;;9.25
59339;BMP280;45117;50.960;5.500;2023-04-01T02:25:41;98495.38;;;9.23
59339;BMP280;45117;50.960;5.500;2023-04-01T02:28:09;98496.88;;;9.24
59339;BMP280;45117;50.960;5.500;2023-04-01T02:30:39;98491.50;;;9.24
59339;BMP280;45117;50.960;5.500;2023-04-01T02:33:07;98502.66;;;9.22
59339;BMP280;45117;50.960;5.500;2023-04-01T02:35:36;98496.38;;;9.25
59339;BMP280;45117;50.960;5.500;2023-04-01T02:38:03;98504.00;;;9.27
59339;BMP280;45117;50.960;5.500;2023-04-01T02:40:41;98494.47;;;9.26
59339;BMP280;45117;50.960;5.500;2023-04-01T02:43:07;98496.88;;;9.24
59339;BMP280;45117;50.960;5.500;2023-04-01T02:45:34;98499.84;;;9.26
59339;BMP280;45117;50.960;5.500;2023-04-01T02:48:02;98507.56;;;9.24
59339;BMP280;45117;50.960;5.500;2023-04-01T02:50:29;98494.91;;;9.24
59339;BMP280;45117;50.960;5.500;2023-04-01T02:52:55;98501.75;;;9.25
59339;BMP280;45117;50.960;5.500;2023-04-01T02:55:22;98505.59;;;9.24
59339;BMP280;45117;50.960;5.500;2023-04-01T02:57:48;98504.41;;;9.25
59339;BMP280;45117;50.960;5.500;2023-04-01T03:00:16;98505.94;;;9.27
59339;BMP280;45117;50.960;5.500;2023-04-01T03:02:43;98506.69;;;9.27
59339;BMP280;45117;50.960;5.500;2023-04-01T03:05:11;98512.03;;;9.27
59339;BMP280;45117;50.960;5.500;2023-04-01T03:07:38;98510.84;;;9.28
59339;BMP280;45117;50.960;5.500;2023-04-01T03:10:05;98500.25;;;9.24
59339;BMP280;45117;50.960;5.500;2023-04-01T03:12:32;98510.41;;;9.30
59339;BMP280;45117;50.960;5.500;2023-04-01T03:14:58;98509.25;;;9.31
59339;BMP280;45117;50.960;5.500;2023-04-01T03:17:25;98518.44;;;9.30
59339;BMP280;45117;50.960;5.500;2023-04-01T03:19:51;98520.81;;;9.28
59339;BMP280;45117;50.960;5.500;2023-04-01T03:22:19;98523.47;;;9.28
59339;BMP280;45117;50.960;5.500;2023-04-01T03:24:46;98520.81;;;9.28
59339;BMP280;45117;50.960;5.500;2023-04-01T03:27:13;98529.56;;;9.28
59339;BMP280;45117;50.960;5.500;2023-04-01T03:29:39;98534.19;;;9.28
59339;BMP280;45117;50.960;5.500;2023-04-01T03:32:06;98530.75;;;9.27
59339;BMP280;45117;50.960;5.500;2023-04-01T03:34:32;98535.78;;;9.25
59339;BMP280;45117;50.960;5.500;2023-04-01T03:36:59;98547.72;;;9.24
59339;BMP280;45117;50.960;5.500;2023-04-01T03:39:27;98546.63;;;9.21
59339;BMP280;45117;50.960;5.500;2023-04-01T03:41:53;98539.81;;;9.20
59339;BMP280;45117;50.960;5.500;2023-04-01T03:44:20;98539.50;;;9.18
59339;BMP280;45117;50.960;5.500;2023-04-01T03:46:47;98557.50;;;9.18
59339;BMP280;45117;50.960;5.500;2023-04-01T03:49:13;98549.59;;;9.14
59339;BMP280;45117;50.960;5.500;2023-04-01T03:51:41;98546.94;;;9.14
59339;BMP280;45117;50.960;5.500;2023-04-01T03:54:10;98543.50;;;9.14
59339;BMP280;45117;50.960;5.500;2023-04-01T03:56:38;98550.34;;;9.15
59339;BMP280;45117;50.960;5.500;2023-04-01T03:59:06;98553.75;;;9.15
59339;BMP280;45117;50.960;5.500;2023-04-01T04:01:33;98546.94;;;9.14
59339;BMP280;45117;50.960;5.500;2023-04-01T04:04:00;98566.41;;;9.15
59339;BMP280;45117;50.960;5.500;2023-04-01T04:06:27;98547.78;;;9.11
59339;BMP280;45117;50.960;5.500;2023-04-01T04:08:54;98560.72;;;9.13
59339;BMP280;45117;50.960;5.500;2023-04-01T04:11:21;98561.91;;;9.12
59339;BMP280;45117;50.960;5.500;2023-04-01T04:13:49;98566.84;;;9.13
59339;BMP280;45117;50.960;5.500;2023-04-01T04:16:17;98573.34;;;9.12
59339;BMP280;45117;50.960;5.500;2023-04-01T04:18:44;98569.63;;;9.10
59339;BMP280;45117;50.960;5.500;2023-04-01T04:21:12;98569.94;;;9.12
59339;BMP280;45117;50.960;5.500;2023-04-01T04:23:39;98576.91;;;9.09
59339;BMP280;45117;50.960;5.500;2023-04-01T04:26:07;98583.75;;;9.10
59339;BMP280;45117;50.960;5.500;2023-04-01T04:28:35;98581.50;;;9.09
59339;BMP280;45117;50.960;5.500;2023-04-01T04:31:03;98586.44;;;9.10
59339;BMP280;45117;50.960;5.500;2023-04-01T04:33:31;98589.97;;;9.07
59339;BMP280;45117;50.960;5.500;2023-04-01T04:35:58;98589.97;;;9.07
59339;BMP280;45117;50.960;5.500;2023-04-01T04:38:26;98594.13;;;9.08
59339;BMP280;45117;50.960;5.500;2023-04-01T04:40:52;98596.06;;;9.08
59339;BMP280;45117;50.960;5.500;2023-04-01T04:43:19;98607.19;;;9.06
59339;BMP280;45117;50.960;5.500;2023-04-01T04:45:46;98603.06;;;9.05
59339;BMP280;45117;50.960;5.500;2023-04-01T04:48:15;98595.03;;;9.05
59339;BMP280;45117;50.960;5.500;2023-04-01T04:50:44;98603.91;;;9.02
59339;BMP280;45117;50.960;5.500;2023-04-01T04:53:10;98605.41;;;9.03
59339;BMP280;45117;50.960;5.500;2023-04-01T04:55:37;98606.59;;;9.02
59339;BMP280;45117;50.960;5.500;2023-04-01T04:58:03;98611.50;;;9.04
59339;BMP280;45117;50.960;5.500;2023-04-01T05:00:30;98613.13;;;9.01
59339;BMP280;45117;50.960;5.500;2023-04-01T05:02:56;98613.44;;;9.03
59339;BMP280;45117;50.960;5.500;2023-04-01T05:05:24;98616.13;;;9.03
59339;BMP280;45117;50.960;5.500;2023-04-01T05:07:51;98626.06;;;9.03
59339;BMP280;45117;50.960;5.500;2023-04-01T05:10:17;98622.66;;;9.02
59339;BMP280;45117;50.960;5.500;2023-04-01T05:12:45;98621.47;;;9.03
59339;BMP280;45117;50.960;5.500;2023-04-01T05:15:12;98628.41;;;9.01
59339;BMP280;45117;50.960;5.500;2023-04-01T05:17:39;98627.66;;;9.00
59339;BMP280;45117;50.960;5.500;2023-04-01T05:20:06;98626.06;;;9.03
59339;BMP280;45117;50.960;5.500;2023-04-01T05:22:34;98632.16;;;9.03
59339;BMP280;45117;50.960;5.500;2023-04-01T05:25:01;98636.44;;;9.01
59339;BMP280;45117;50.960;5.500;2023-04-01T05:27:27;98643.72;;;9.00
59339;BMP280;45117;50.960;5.500;2023-04-01T05:29:54;98641.03;;;9.00
59339;BMP280;45117;50.960;5.500;2023-04-01T05:32:21;98639.88;;;9.01
59339;BMP280;45117;50.960;5.500;2023-04-01T05:34:50;98636.88;;;8.99
59339;BMP280;45117;50.960;5.500;2023-04-01T05:37:16;98639.13;;;9.01
59339;BMP280;45117;50.960;5.500;2023-04-01T05:39:44;98646.72;;;9.02
59339;BMP280;45117;50.960;5.500;2023-04-01T05:42:11;98642.13;;;9.03
59339;BMP280;45117;50.960;5.500;2023-04-01T05:44:37;98652.94;;;8.99
59339;BMP280;45117;50.960;5.500;2023-04-01T05:47:04;98645.97;;;9.02
59339;BMP280;45117;50.960;5.500;2023-04-01T05:49:31;98653.25;;;9.01
59339;BMP280;45117;50.960;5.500;2023-04-01T05:51:59;98666.94;;;9.03
59339;BMP280;45117;50.960;5.500;2023-04-01T05:54:25;98661.28;;;9.01
59339;BMP280;45117;50.960;5.500;2023-04-01T05:56:53;98657.00;;;9.04
59339;BMP280;45117;50.960;5.500;2023-04-01T05:59:20;98668.44;;;9.04
59339;BMP280;45117;50.960;5.500;2023-04-01T06:01:46;98669.63;;;9.03
59339;BMP280;45117;50.960;5.500;2023-04-01T06:04:14;98681.06;;;9.04
59339;BMP280;45117;50.960;5.500;2023-04-01T06:06:41;98680.19;;;9.07
59339;BMP280;45117;50.960;5.500;2023-04-01T06:09:13;98682.88;;;9.07
59339;BMP280;45117;50.960;5.500;2023-04-01T06:11:55;98682.56;;;9.05
59339;BMP280;45117;50.960;5.500;2023-04-01T06:14:33;98675.59;;;9.07
59339;BMP280;45117;50.960;5.500;2023-04-01T06:17:13;98690.16;;;9.06
59339;BMP280;45117;50.960;5.500;2023-04-01T06:19:49;98698.47;;;9.08
59339;BMP280;45117;50.960;5.500;2023-04-01T06:22:37;98703.53;;;9.06
59339;BMP280;45117;50.960;5.500;2023-04-01T06:25:21;98698.47;;;9.08
59339;BMP280;45117;50.960;5.500;2023-04-01T06:28:01;98708.03;;;9.09
59339;BMP280;45117;50.960;5.500;2023-04-01T06:30:37;98706.50;;;9.08
59339;BMP280;45117;50.960;5.500;2023-04-01T06:33:20;98714.44;;;9.12
59339;BMP280;45117;50.960;5.500;2023-04-01T06:36:08;98712.09;;;9.14
59339;BMP280;45117;50.960;5.500;2023-04-01T06:38:50;98718.59;;;9.13
59339;BMP280;45117;50.960;5.500;2023-04-01T06:41:30;98720.53;;;9.12
59339;BMP280;45117;50.960;5.500;2023-04-01T06:44:10;98725.00;;;9.15
59339;BMP280;45117;50.960;5.500;2023-04-01T06:46:43;98729.63;;;9.15
59339;BMP280;45117;50.960;5.500;2023-04-01T06:49:29;98730.34;;;9.15
59339;BMP280;45117;50.960;5.500;2023-04-01T06:52:03;98731.84;;;9.16
59339;BMP280;45117;50.960;5.500;2023-04-01T06:54:34;98739.88;;;9.16
59339;BMP280;45117;50.960;5.500;2023-04-01T06:57:05;98733.03;;;9.15
59339;BMP280;45117;50.960;5.500;2023-04-01T06:59:38;98739.88;;;9.16
59339;BMP280;45117;50.960;5.500;2023-04-01T07:02:15;98744.38;;;9.19
59339;BMP280;45117;50.960;5.500;2023-04-01T07:04:47;98742.13;;;9.18
59339;BMP280;45117;50.960;5.500;2023-04-01T07:07:21;98752.41;;;9.19
59339;BMP280;45117;50.960;5.500;2023-04-01T07:09:52;98753.16;;;9.20
59339;BMP280;45117;50.960;5.500;2023-04-01T07:12:23;98760.88;;;9.18
59339;BMP280;45117;50.960;5.500;2023-04-01T07:14:58;98757.75;;;9.19
59339;BMP280;45117;50.960;5.500;2023-04-01T07:17:30;98756.25;;;9.18
59339;BMP280;45117;50.960;5.500;2023-04-01T07:20:02;98761.63;;;9.18
59339;BMP280;45117;50.960;5.500;2023-04-01T07:22:34;98765.78;;;9.19
59339;BMP280;45117;50.960;5.500;2023-04-01T07:25:03;98767.63;;;9.22
59339;BMP280;45117;50.960;5.500;2023-04-01T07:27:31;98775.91;;;9.24
59339;BMP280;45117;50.960;5.500;2023-04-01T07:30:00;98779.06;;;9.23
59339;BMP280;45117;50.960;5.500;2023-04-01T07:32:34;98782.75;;;9.25
59339;BMP280;45117;50.960;5.500;2023-04-01T07:35:16;98782.75;;;9.25
59339;BMP280;45117;50.960;5.500;2023-04-01T07:37:53;98798.06;;;9.25
59339;BMP280;45117;50.960;5.500;2023-04-01T07:40:28;98804.19;;;9.25
59339;BMP280;45117;50.960;5.500;2023-04-01T07:43:10;98801.59;;;9.35
59339;BMP280;45117;50.960;5.500;2023-04-01T07:45:46;98801.06;;;9.40
59339;BMP280;45117;50.960;5.500;2023-04-01T07:48:22;98801.81;;;9.40
59339;BMP280;45117;50.960;5.500;2023-04-01T07:50:57;98820.09;;;9.42
59339;BMP280;45117;50.960;5.500;2023-04-01T07:53:32;98811.19;;;9.45
59339;BMP280;45117;50.960;5.500;2023-04-01T07:56:06;98828.59;;;9.40
59339;BMP280;45117;50.960;5.500;2023-04-01T07:58:42;98827.72;;;9.43
59339;BMP280;45117;50.960;5.500;2023-04-01T08:01:17;98822.56;;;9.49
59339;BMP280;45117;50.960;5.500;2023-04-01T08:04:07;98825.66;;;9.47
59339;BMP280;45117;50.960;5.500;2023-04-01T08:06:45;98831.75;;;9.61
59339;BMP280;45117;50.960;5.500;2023-04-01T08:09:18;98833.34;;;9.58
59339;BMP280;45117;50.960;5.500;2023-04-01T08:11:59;98839.22;;;9.53
59339;BMP280;45117;50.960;5.500;2023-04-01T08:14:30;98849.09;;;9.56
59339;BMP280;45117;50.960;5.500;2023-04-01T08:17:02;98847.56;;;9.55
59339;BMP280;45117;50.960;5.500;2023-04-01T08:19:42;98856.38;;;9.56
59339;BMP280;45117;50.960;5.500;2023-04-01T08:22:17;98853.56;;;9.59
59339;BMP280;45117;50.960;5.500;2023-04-01T08:24:46;98858.28;;;9.55
59339;BMP280;45117;50.960;5.500;2023-04-01T08:27:18;98855.84;;;9.61
59339;BMP280;45117;50.960;5.500;2023-04-01T08:29:50;98864.28;;;9.59
59339;BMP280;45117;50.960;5.500;2023-04-01T08:32:22;98868.16;;;9.58
59339;BMP280;45117;50.960;5.500;2023-04-01T08:34:56;98871.69;;;9.55
59339;BMP280;45117;50.960;5.500;2023-04-01T08:37:28;98873.59;;;9.55
59339;BMP280;45117;50.960;5.500;2023-04-01T08:39:58;98875.53;;;9.54
59339;BMP280;45117;50.960;5.500;2023-04-01T08:42:35;98883.56;;;9.54
59339;BMP280;45117;50.960;5.500;2023-04-01T08:45:35;98885.97;;;9.52
59339;BMP280;45117;50.960;5.500;2023-04-01T08:48:33;98891.50;;;9.58
59339;BMP280;45117;50.960;5.500;2023-04-01T08:51:16;98885.84;;;9.56
59339;BMP280;45117;50.960;5.500;2023-04-01T08:53:59;98893.09;;;9.55
59339;BMP280;45117;50.960;5.500;2023-04-01T08:56:34;98896.84;;;9.58
59339;BMP280;45117;50.960;5.500;2023-04-01T08:59:12;98893.44;;;9.57
59339;BMP280;45117;50.960;5.500;2023-04-01T09:01:59;98903.16;;;9.64
59339;BMP280;45117;50.960;5.500;2023-04-01T09:04:41;98893.41;;;9.70
59339;BMP280;45117;50.960;5.500;2023-04-01T09:07:27;98904.50;;;9.81
59339;BMP280;45117;50.960;5.500;2023-04-01T09:10:10;98909.44;;;9.83
59339;BMP280;45117;50.960;5.500;2023-04-01T09:15:46;98902.72;;;9.78
59339;BMP280;45117;50.960;5.500;2023-04-01T09:18:35;98921.75;;;9.80
59339;BMP280;45117;50.960;5.500;2023-04-01T09:21:21;98916.28;;;9.84
59339;BMP280;45117;50.960;5.500;2023-04-01T09:24:13;98923.13;;;9.85
59339;BMP280;45117;50.960;5.500;2023-04-01T09:26:54;98925.56;;;9.92
59339;BMP280;45117;50.960;5.500;2023-04-01T09:29:34;98929.50;;;10.00
59339;BMP280;45117;50.960;5.500;2023-04-01T09:32:27;98933.38;;;9.99
59339;BMP280;45117;50.960;5.500;2023-04-01T09:35:05;98935.22;;;10.02
59339;BMP280;45117;50.960;5.500;2023-04-01T09:37:51;98940.66;;;9.98
59339;BMP280;45117;50.960;5.500;2023-04-01T09:40:24;98934.25;;;9.96
59339;BMP280;45117;50.960;5.500;2023-04-01T09:43:05;98939.25;;;10.06
59339;BMP280;45117;50.960;5.500;2023-04-01T09:45:41;98946.75;;;10.12
59339;BMP280;45117;50.960;5.500;2023-04-01T09:48:18;98940.50;;;10.15
59339;BMP280;45117;50.960;5.500;2023-04-01T09:50:52;98950.03;;;10.16
59339;BMP280;45117;50.960;5.500;2023-04-01T09:53:41;98955.28;;;10.19
59339;BMP280;45117;50.960;5.500;2023-04-01T09:56:28;98952.09;;;10.33
59339;BMP280;45117;50.960;5.500;2023-04-01T09:59:15;98948.13;;;10.38
59339;BMP280;45117;50.960;5.500;2023-04-01T10:02:05;98956.66;;;10.46
59339;BMP280;45117;50.960;5.500;2023-04-01T10:05:11;98965.50;;;10.33
59339;BMP280;45117;50.960;5.500;2023-04-01T10:08:12;98961.03;;;10.30
59339;BMP280;45117;50.960;5.500;2023-04-01T10:14:34;98975.53;;;10.42
59339;BMP280;45117;50.960;5.500;2023-04-01T10:17:16;98979.91;;;10.49
59339;BMP280;45117;50.960;5.500;2023-04-01T10:20:03;98973.81;;;10.48
59339;BMP280;45117;50.960;5.500;2023-04-01T10:22:54;98981.91;;;10.57
59339;BMP280;45117;50.960;5.500;2023-04-01T10:32:24;98983.53;;;10.55
59339;BMP280;45117;50.960;5.500;2023-04-01T10:35:28;98994.44;;;10.39
59339;BMP280;45117;50.960;5.500;2023-04-01T10:38:20;98991.13;;;10.34
59339;BMP280;45117;50.960;5.500;2023-04-01T10:53:24;99000.00;;;10.44
59339;BMP280;45117;50.960;5.500;2023-04-01T10:56:30;99003.25;;;10.39
59339;BMP280;45117;50.960;5.500;2023-04-01T11:02:49;99011.50;;;10.45
59339;BMP280;45117;50.960;5.500;2023-04-01T11:05:42;99007.47;;;10.27
59339;BMP280;45117;50.960;5.500;2023-04-01T11:18:25;99016.97;;;10.63
59339;BMP280;45117;50.960;5.500;2023-04-01T11:27:11;99027.72;;;10.94
59339;BMP280;45117;50.960;5.500;2023-04-01T11:29:53;99020.22;;;10.80
59339;BMP280;45117;50.960;5.500;2023-04-01T11:32:32;99031.25;;;10.82
59339;BMP280;45117;50.960;5.500;2023-04-01T11:35:28;99021.16;;;10.86
59339;BMP280;45117;50.960;5.500;2023-04-01T11:38:07;99039.84;;;10.99
59339;BMP280;45117;50.960;5.500;2023-04-01T11:40:44;99037.97;;;11.08
59339;BMP280;45117;50.960;5.500;2023-04-01T11:43:21;99041.78;;;11.20
59339;BMP280;45117;50.960;5.500;2023-04-01T11:45:55;99045.91;;;11.12
59339;BMP280;45117;50.960;5.500;2023-04-01T11:51:46;99050.94;;;11.10
59339;BMP280;45117;50.960;5.500;2023-04-01T11:54:32;99057.25;;;11.16
59339;BMP280;45117;50.960;5.500;2023-04-01T11:57:10;99046.72;;;11.00
59339;BMP280;45117;50.960;5.500;2023-04-01T11:59:57;99059.78;;;10.88
59339;BMP280;45117;50.960;5.500;2023-04-01T12:02:35;99062.63;;;10.94
59339;BMP280;45117;50.960;5.500;2023-04-01T12:05:25;99071.00;;;10.96
59339;BMP280;45117;50.960;5.500;2023-04-01T12:08:13;99076.53;;;11.02
59339;BMP280;45117;50.960;5.500;2023-04-01T12:10:46;99076.94;;;10.91
59339;BMP280;45117;50.960;5.500;2023-04-01T12:13:24;99077.13;;;10.97
59339;BMP280;45117;50.960;5.500;2023-04-01T12:16:11;99085.72;;;10.91
59339;BMP280;45117;50.960;5.500;2023-04-01T12:18:46;99088.25;;;10.86
59339;BMP280;45117;50.960;5.500;2023-04-01T12:21:23;99093.72;;;10.82
59339;BMP280;45117;50.960;5.500;2023-04-01T12:24:11;99085.06;;;10.78
59339;BMP280;45117;50.960;5.500;2023-04-01T12:26:49;99093.66;;;10.73
59339;BMP280;45117;50.960;5.500;2023-04-01T12:29:37;99101.47;;;10.80
59339;BMP280;45117;50.960;5.500;2023-04-01T12:32:16;99100.34;;;10.90
59339;BMP280;45117;50.960;5.500;2023-04-01T12:35:12;99108.72;;;10.92
59339;BMP280;45117;50.960;5.500;2023-04-01T12:37:48;99105.72;;;10.90
59339;BMP280;45117;50.960;5.500;2023-04-01T12:40:39;99108.09;;;10.88
59339;BMP280;45117;50.960;5.500;2023-04-01T12:43:21;99112.50;;;10.82
59339;BMP280;45117;50.960;5.500;2023-04-01T12:45:55;99118.88;;;10.76
59339;BMP280;45117;50.960;5.500;2023-04-01T12:48:51;99108.03;;;10.79
59339;BMP280;45117;50.960;5.500;2023-04-01T12:51:41;99120.69;;;10.79
59339;BMP280;45117;50.960;5.500;2023-04-01T12:57:20;99126.81;;;10.79
59339;BMP280;45117;50.960;5.500;2023-04-01T13:00:02;99127.44;;;10.83
59339;BMP280;45117;50.960;5.500;2023-04-01T13:02:40;99127.19;;;10.90
59339;BMP280;45117;50.960;5.500;2023-04-01T13:05:24;99131.97;;;10.74
59339;BMP280;45117;50.960;5.500;2023-04-01T13:08:09;99144.34;;;10.71
59339;BMP280;45117;50.960;5.500;2023-04-01T13:11:02;99139.19;;;10.64
59339;BMP280;45117;50.960;5.500;2023-04-01T13:13:45;99150.16;;;10.57
59339;BMP280;45117;50.960;5.500;2023-04-01T13:16:16;99145.91;;;10.47
59339;BMP280;45117;50.960;5.500;2023-04-01T13:18:54;99153.19;;;10.46
59339;BMP280;45117;50.960;5.500;2023-04-01T13:21:33;99156.72;;;10.56
59339;BMP280;45117;50.960;5.500;2023-04-01T13:24:08;99153.50;;;10.61
59339;BMP280;45117;50.960;5.500;2023-04-01T13:26:41;99155.22;;;10.55
59339;BMP280;45117;50.960;5.500;2023-04-01T13:29:14;99155.00;;;10.62
59339;BMP280;45117;50.960;5.500;2023-04-01T13:31:53;99164.31;;;10.70
59339;BMP280;45117;50.960;5.500;2023-04-01T13:34:30;99159.13;;;10.76
59339;BMP280;45117;50.960;5.500;2023-04-01T13:39:56;99176.63;;;10.68
59339;BMP280;45117;50.960;5.500;2023-04-01T13:42:29;99175.13;;;10.67
59339;BMP280;45117;50.960;5.500;2023-04-01T13:45:08;99180.00;;;10.81
59339;BMP280;45117;50.960;5.500;2023-04-01T13:50:57;99177.22;;;10.84
59339;BMP280;45117;50.960;5.500;2023-04-01T13:53:48;99180.34;;;10.83
59339;BMP280;45117;50.960;5.500;2023-04-01T13:56:25;99180.41;;;10.70
59339;BMP280;45117;50.960;5.500;2023-04-01T13:59:16;99181.91;;;10.71
59339;BMP280;45117;50.960;5.500;2023-04-01T14:01:54;99187.06;;;10.65
59339;BMP280;45117;50.960;5.500;2023-04-01T14:04:34;99190.34;;;10.82
59339;BMP280;45117;50.960;5.500;2023-04-01T14:07:14;99193.34;;;10.84
59339;BMP280;45117;50.960;5.500;2023-04-01T14:09:49;99201.81;;;10.96
59339;BMP280;45117;50.960;5.500;2023-04-01T14:12:28;99195.28;;;11.06
59339;BMP280;45117;50.960;5.500;2023-04-01T14:15:07;99196.25;;;11.12
59339;BMP280;45117;50.960;5.500;2023-04-01T14:17:54;99204.00;;;11.10
59339;BMP280;45117;50.960;5.500;2023-04-01T14:20:34;99202.59;;;11.05
59339;BMP280;45117;50.960;5.500;2023-04-01T14:26:34;99211.44;;;10.93
59339;BMP280;45117;50.960;5.500;2023-04-01T14:29:09;99223.19;;;10.86
59339;BMP280;45117;50.960;5.500;2023-04-01T14:31:44;99222.16;;;10.71
59339;BMP280;45117;50.960;5.500;2023-04-01T14:34:38;99216.56;;;10.65
59339;BMP280;45117;50.960;5.500;2023-04-01T14:37:15;99217.63;;;10.68
59339;BMP280;45117;50.960;5.500;2023-04-01T14:39:57;99222.38;;;10.64
59339;BMP280;45117;50.960;5.500;2023-04-01T14:42:41;99230.31;;;10.68
59339;BMP280;45117;50.960;5.500;2023-04-01T14:45:42;99231.94;;;10.65
59339;BMP280;45117;50.960;5.500;2023-04-01T14:48:21;99236.66;;;10.61
59339;BMP280;45117;50.960;5.500;2023-04-01T14:50:53;99229.31;;;10.74
59339;BMP280;45117;50.960;5.500;2023-04-01T14:53:27;99227.41;;;10.75
59339;BMP280;45117;50.960;5.500;2023-04-01T14:55:55;99239.00;;;10.72
59339;BMP280;45117;50.960;5.500;2023-04-01T14:58:23;99232.69;;;10.65
59339;BMP280;45117;50.960;5.500;2023-04-01T15:01:00;99238.78;;;10.66
59339;BMP280;45117;50.960;5.500;2023-04-01T15:03:37;99243.94;;;10.73
59339;BMP280;45117;50.960;5.500;2023-04-01T15:06:31;99242.34;;;10.63
59339;BMP280;45117;50.960;5.500;2023-04-01T15:09:06;99252.41;;;10.59
59339;BMP280;45117;50.960;5.500;2023-04-01T15:11:43;99251.78;;;10.55
59339;BMP280;45117;50.960;5.500;2023-04-01T15:17:27;99256.84;;;10.53
59339;BMP280;45117;50.960;5.500;2023-04-01T15:20:08;99262.63;;;10.51
59339;BMP280;45117;50.960;5.500;2023-04-01T15:22:44;99261.69;;;10.45
59339;BMP280;45117;50.960;5.500;2023-04-01T15:25:34;99266.06;;;10.52
59339;BMP280;45117;50.960;5.500;2023-04-01T15:28:14;99272.28;;;10.49
59339;BMP280;45117;50.960;5.500;2023-04-01T15:30:51;99274.34;;;10.45
59339;BMP280;45117;50.960;5.500;2023-04-01T15:33:32;99269.94;;;10.38
59339;BMP280;45117;50.960;5.500;2023-04-01T15:36:08;99281.63;;;10.31
59339;BMP280;45117;50.960;5.500;2023-04-01T15:38:44;99280.34;;;10.36
59339;BMP280;45117;50.960;5.500;2023-04-01T15:41:15;99279.47;;;10.26
59339;BMP280;45117;50.960;5.500;2023-04-01T15:43:43;99280.63;;;10.25
59339;BMP280;45117;50.960;5.500;2023-04-01T15:46:39;99286.75;;;10.51
59339;BMP280;45117;50.960;5.500;2023-04-01T15:49:17;99292.88;;;10.52
59339;BMP280;45117;50.960;5.500;2023-04-01T15:51:54;99292.34;;;10.57
59339;BMP280;45117;50.960;5.500;2023-04-01T15:55:08;99292.03;;;10.55
59339;BMP280;45117;50.960;5.500;2023-04-01T15:57:45;99299.97;;;10.58
59339;BMP280;45117;50.960;5.500;2023-04-01T16:00:21;99298.25;;;10.52
59339;BMP280;45117;50.960;5.500;2023-04-01T16:02:53;99302.34;;;10.44
59339;BMP280;45117;50.960;5.500;2023-04-01T16:05:37;99302.19;;;10.34
59339;BMP280;45117;50.960;5.500;2023-04-01T16:08:19;99307.56;;;10.34
59339;BMP280;45117;50.960;5.500;2023-04-01T16:11:10;99303.94;;;10.28
59339;BMP280;45117;50.960;5.500;2023-04-01T16:13:48;99308.53;;;10.28
59339;BMP280;45117;50.960;5.500;2023-04-01T16:16:25;99312.50;;;10.23
59339;BMP280;45117;50.960;5.500;2023-04-01T16:19:08;99317.97;;;10.20
59339;BMP280;45117;50.960;5.500;2023-04-01T16:21:43;99312.81;;;10.13
59339;BMP280;45117;50.960;5.500;2023-04-01T16:24:17;99315.69;;;10.05
59339;BMP280;45117;50.960;5.500;2023-04-01T16:26:52;99323.31;;;10.07
59339;BMP280;45117;50.960;5.500;2023-04-01T16:29:26;99328.34;;;10.05
59339;BMP280;45117;50.960;5.500;2023-04-01T16:31:59;99327.66;;;10.01
59339;BMP280;45117;50.960;5.500;2023-04-01T16:34:34;99329.19;;;10.02
59339;BMP280;45117;50.960;5.500;2023-04-01T16:37:07;99327.28;;;10.02
59339;BMP280;45117;50.960;5.500;2023-04-01T16:39:44;99328.03;;;10.03
59339;BMP280;45117;50.960;5.500;2023-04-01T16:42:24;99339.56;;;10.00
59339;BMP280;45117;50.960;5.500;2023-04-01T16:44:55;99333.13;;;9.97
59339;BMP280;45117;50.960;5.500;2023-04-01T16:47:29;99337.72;;;9.97
59339;BMP280;45117;50.960;5.500;2023-04-01T16:49:59;99343.97;;;9.94
59339;BMP280;45117;50.960;5.500;2023-04-01T16:52:35;99352.28;;;9.83
59339;BMP280;45117;50.960;5.500;2023-04-01T16:55:14;99357.41;;;9.77
59339;BMP280;45117;50.960;5.500;2023-04-01T16:57:48;99353.56;;;9.78
59339;BMP280;45117;50.960;5.500;2023-04-01T17:00:23;99372.75;;;9.77
59339;BMP280;45117;50.960;5.500;2023-04-01T17:02:58;99367.84;;;9.72
59339;BMP280;45117;50.960;5.500;2023-04-01T17:05:39;99368.81;;;9.65
59339;BMP280;45117;50.960;5.500;2023-04-01T17:08:16;99379.53;;;9.65
59339;BMP280;45117;50.960;5.500;2023-04-01T17:10:50;99377.59;;;9.66
59339;BMP280;45117;50.960;5.500;2023-04-01T17:13:41;99379.53;;;9.65
59339;BMP280;45117;50.960;5.500;2023-04-01T17:16:26;99384.66;;;9.60
59339;BMP280;45117;50.960;5.500;2023-04-01T17:19:01;99385.88;;;9.55
59339;BMP280;45117;50.960;5.500;2023-04-01T17:21:44;99391.44;;;9.48
59339;BMP280;45117;50.960;5.500;2023-04-01T17:24:24;99394.28;;;9.41
59339;BMP280;45117;50.960;5.500;2023-04-01T17:26:59;99399.22;;;9.42
59339;BMP280;45117;50.960;5.500;2023-04-01T17:29:46;99399.72;;;9.37
59339;BMP280;45117;50.960;5.500;2023-04-01T17:32:24;99404.81;;;9.32
59339;BMP280;45117;50.960;5.500;2023-04-01T17:35:02;99411.69;;;9.33
59339;BMP280;45117;50.960;5.500;2023-04-01T17:37:43;99410.56;;;9.30
59339;BMP280;45117;50.960;5.500;2023-04-01T17:40:21;99413.69;;;9.29
59339;BMP280;45117;50.960;5.500;2023-04-01T17:42:58;99418.72;;;9.27
59339;BMP280;45117;50.960;5.500;2023-04-01T17:45:31;99423.41;;;9.22
59339;BMP280;45117;50.960;5.500;2023-04-01T17:48:08;99425.72;;;9.20
59339;BMP280;45117;50.960;5.500;2023-04-01T17:50:53;99432.31;;;9.16
59339;BMP280;45117;50.960;5.500;2023-04-01T17:53:32;99435.06;;;9.12
59339;BMP280;45117;50.960;5.500;2023-04-01T17:56:08;99439.69;;;9.12
59339;BMP280;45117;50.960;5.500;2023-04-01T17:58:45;99436.25;;;9.11
59339;BMP280;45117;50.960;5.500;2023-04-01T18:01:26;99443.59;;;9.07
59339;BMP280;45117;50.960;5.500;2023-04-01T18:04:18;99444.03;;;9.06
59339;BMP280;45117;50.960;5.500;2023-04-01T18:07:13;99447.09;;;9.04
59339;BMP280;45117;50.960;5.500;2023-04-01T18:09:50;99445.28;;;9.01
59339;BMP280;45117;50.960;5.500;2023-04-01T18:12:27;99454.81;;;9.02
59339;BMP280;45117;50.960;5.500;2023-04-01T18:15:09;99454.44;;;9.00
59339;BMP280;45117;50.960;5.500;2023-04-01T18:17:49;99464.41;;;9.00
59339;BMP280;45117;50.960;5.500;2023-04-01T18:20:28;99454.13;;;8.98
59339;BMP280;45117;50.960;5.500;2023-04-01T18:22:59;99457.28;;;8.93
59339;BMP280;45117;50.960;5.500;2023-04-01T18:25:32;99464.44;;;8.96